Time;durP1;ratioP1;P1;durP2;ratioP2;P2;SDS_P1;SDS_P2;PMS_P1;PMS_P2;Temp;Humidity;BMP_temperature;BMP_pressure;BME280_temperature;BME280_humidity;BME280_pressure;Samples;Min_cycle;Max_cycle;Signal;HPM_P1;HPM_P2
2023/06/19 00:00:15;;;;;;;7.13;6.35;;;;;;;22.98;43.01;99823.47;10192398;29;20044;-76
2023/06/19 00:05:23;;;;;;;7.75;7.03;;;;;;;22.96;43.13;99819.28;10192391;29;20047;-73
2023/06/19 00:10:26;;;;;;;8.15;7.07;;;;;;;22.97;42.69;99813.56;10190798;29;20479;-76
2023/06/19 00:15:29;;;;;;;9.32;7.10;;;;;;;22.98;42.43;99801.56;10193235;29;20036;-76
2023/06/19 00:20:35;;;;;;;8.40;7.50;;;;;;;22.88;43.07;99809.41;10183317;29;20503;-76
2023/06/19 00:25:37;;;;;;;7.85;7.10;;;;;;;22.82;42.97;99804.81;10176235;29;20044;-75
2023/06/19 00:30:41;;;;;;;8.57;7.68;;;;;;;22.63;43.59;99803.84;10180129;29;20048;-76
2023/06/19 00:35:45;;;;;;;11.80;7.22;;;;;;;22.65;43.61;99800.88;10192261;29;20040;-76
2023/06/19 00:40:48;;;;;;;7.88;7.13;;;;;;;22.67;43.44;99785.94;10200869;29;20545;-75
2023/06/19 00:45:51;;;;;;;8.23;7.15;;;;;;;22.71;43.41;99789.91;10195596;29;20044;-76
2023/06/19 00:50:56;;;;;;;8.30;7.43;;;;;;;22.64;43.70;99788.28;10195420;29;20108;-76
2023/06/19 00:56:00;;;;;;;8.02;7.25;;;;;;;22.65;43.41;99785.28;10188793;29;20055;-75
2023/06/19 01:01:03;;;;;;;9.68;7.60;;;;;;;22.68;43.79;99775.81;10194731;29;20047;-75
2023/06/19 01:06:21;;;;;;;8.98;7.80;;;;;;;22.62;43.67;99769.31;10189799;29;20056;-75
2023/06/19 01:11:28;;;;;;;7.82;6.90;;;;;;;22.55;44.12;99738.44;10197525;29;20119;-76
2023/06/19 01:16:32;;;;;;;8.45;7.63;;;;;;;22.39;43.90;99733.41;10199320;29;20043;-75
2023/06/19 01:21:39;;;;;;;10.38;8.55;;;;;;;22.30;43.38;99728.19;10190339;29;20055;-75
2023/06/19 01:26:45;;;;;;;8.48;7.68;;;;;;;22.29;43.85;99725.66;10191220;29;20063;-75
2023/06/19 01:31:56;;;;;;;8.48;7.53;;;;;;;22.22;44.12;99727.59;10186463;29;20058;-76
2023/06/19 01:37:00;;;;;;;8.65;7.80;;;;;;;22.14;44.24;99744.25;10188257;29;20048;-76
2023/06/19 01:42:06;;;;;;;8.73;7.82;;;;;;;22.15;43.80;99749.50;10184092;29;20054;-75
2023/06/19 01:47:11;;;;;;;9.80;7.80;;;;;;;22.24;44.18;99748.22;10190093;29;20050;-76
2023/06/19 01:52:14;;;;;;;10.98;7.47;;;;;;;22.23;43.62;99743.78;10193763;29;20129;-76
2023/06/19 01:57:18;;;;;;;8.00;7.20;;;;;;;22.21;43.90;99747.78;10190649;29;20055;-76
2023/06/19 02:02:22;;;;;;;8.90;7.50;;;;;;;22.20;43.40;99746.13;10191898;29;20056;-75
2023/06/19 02:07:25;;;;;;;8.65;7.65;;;;;;;22.22;43.82;99742.13;10182045;29;20068;-73
2023/06/19 02:12:29;;;;;;;8.20;7.22;;;;;;;22.22;43.75;99744.84;10182950;29;20050;-76
2023/06/19 02:17:33;;;;;;;8.15;7.38;;;;;;;22.26;43.79;99734.31;10191901;29;20697;-76
2023/06/19 02:22:36;;;;;;;10.38;8.63;;;;;;;22.20;43.75;99741.50;10189583;29;20178;-76
2023/06/19 02:27:40;;;;;;;10.18;8.00;;;;;;;22.15;43.95;99744.03;10187359;29;20048;-75
2023/06/19 02:32:44;;;;;;;9.55;7.53;;;;;;;22.07;44.45;99736.06;10189102;29;20127;-75
2023/06/19 02:37:47;;;;;;;8.25;7.35;;;;;;;22.08;44.22;99744.06;10181266;29;20571;-76
2023/06/19 02:42:51;;;;;;;8.75;7.60;;;;;;;22.08;44.73;99737.75;10172162;29;20048;-76
2023/06/19 02:47:54;;;;;;;8.80;7.90;;;;;;;22.06;44.60;99737.13;10186969;29;20054;-76
2023/06/19 02:52:57;;;;;;;10.27;8.20;;;;;;;21.95;44.40;99741.38;10205570;29;20052;-76
2023/06/19 02:58:01;;;;;;;9.57;8.05;;;;;;;21.96;44.47;99737.56;10193644;29;20139;-75
2023/06/19 03:03:04;;;;;;;8.80;7.60;;;;;;;21.96;44.78;99739.47;10197157;29;20047;-76
2023/06/19 03:08:07;;;;;;;9.45;8.45;;;;;;;21.98;44.99;99731.91;10181716;29;20626;-76
2023/06/19 03:13:13;;;;;;;10.05;8.07;;;;;;;21.95;44.87;99724.13;10177721;29;20106;-75
2023/06/19 03:18:17;;;;;;;12.05;9.15;;;;;;;21.95;45.17;99740.53;10169318;29;20048;-75
2023/06/19 03:23:20;;;;;;;11.70;8.30;;;;;;;21.96;45.21;99732.09;10172457;29;20062;-75
2023/06/19 03:28:25;;;;;;;10.48;8.20;;;;;;;21.94;45.65;99733.34;10199284;29;20052;-76
2023/06/19 03:33:28;;;;;;;9.85;7.85;;;;;;;21.95;45.66;99737.78;10193870;29;20060;-76
2023/06/19 03:38:32;;;;;;;11.75;8.65;;;;;;;21.88;45.81;99749.56;10192700;29;20457;-76
2023/06/19 03:43:36;;;;;;;9.25;7.85;;;;;;;21.79;45.99;99744.56;10188041;29;20175;-76
2023/06/19 03:48:40;;;;;;;9.93;8.30;;;;;;;21.58;46.27;99748.31;10193697;29;20134;-77
2023/06/19 03:53:43;;;;;;;9.98;8.43;;;;;;;21.57;46.30;99758.44;10184551;29;20044;-76
2023/06/19 03:58:47;;;;;;;8.98;8.05;;;;;;;21.51;46.18;99756.53;10182673;29;20558;-76
2023/06/19 04:03:50;;;;;;;9.43;8.50;;;;;;;21.51;46.53;99761.19;10192247;29;20105;-76
2023/06/19 04:08:53;;;;;;;8.65;7.80;;;;;;;21.62;46.49;99769.56;10197081;29;20099;-75
2023/06/19 04:13:57;;;;;;;9.93;8.38;;;;;;;21.75;46.64;99762.41;10213378;29;20503;-76
2023/06/19 04:19:00;;;;;;;9.32;8.32;;;;;;;21.90;46.36;99760.31;10199178;29;20380;-76
2023/06/19 04:24:08;;;;;;;11.13;7.72;;;;;;;22.01;45.80;99764.28;10186889;29;20048;-76
2023/06/19 04:29:16;;;;;;;13.38;7.88;;;;;;;22.03;46.10;99771.22;10189655;29;20087;-75
2023/06/19 04:34:20;;;;;;;10.07;8.43;;;;;;;22.13;46.27;99786.31;10195688;29;20078;-76
2023/06/19 04:39:23;;;;;;;8.07;7.28;;;;;;;22.11;46.74;99778.34;10197228;29;20492;-76
2023/06/19 04:44:33;;;;;;;11.25;7.47;;;;;;;22.21;46.57;99775.97;10196281;29;20048;-76
2023/06/19 04:49:36;;;;;;;9.93;7.93;;;;;;;22.26;46.89;99776.19;10195099;29;20036;-76
2023/06/19 04:54:39;;;;;;;11.07;7.88;;;;;;;22.42;46.32;99787.72;10201739;29;20108;-76
2023/06/19 04:59:45;;;;;;;9.90;7.78;;;;;;;22.47;45.97;99788.75;10205317;29;20049;-75
2023/06/19 05:04:47;;;;;;;10.18;8.15;;;;;;;22.48;45.92;99790.44;10196786;29;20075;-74
2023/06/19 05:09:51;;;;;;;9.68;8.13;;;;;;;22.39;46.44;99788.97;10193592;29;20108;-75
2023/06/19 05:14:55;;;;;;;8.27;7.45;;;;;;;22.27;46.40;99790.69;10195301;29;20047;-74
2023/06/19 05:19:58;;;;;;;8.10;7.30;;;;;;;22.23;46.54;99803.13;10197586;29;20048;-74
2023/06/19 05:25:00;;;;;;;7.93;7.13;;;;;;;22.15;46.59;99823.34;10199632;29;20518;-76
2023/06/19 05:30:06;;;;;;;14.70;7.63;;;;;;;22.12;47.00;99845.66;10190755;29;20051;-75
2023/06/19 05:35:09;;;;;;;8.18;7.38;;;;;;;22.07;47.73;99843.53;10184557;29;20035;-76
2023/06/19 05:40:15;;;;;;;7.88;7.07;;;;;;;22.05;48.07;99839.34;10180149;29;20456;-75
2023/06/19 05:45:19;;;;;;;11.07;7.57;;;;;;;21.89;48.75;99838.75;10183419;29;20066;-75
2023/06/19 05:50:23;;;;;;;9.73;6.68;;;;;;;21.95;49.46;99844.44;10195127;29;20044;-75
2023/06/19 05:55:27;;;;;;;7.35;6.47;;;;;;;21.50;50.82;99863.31;10196912;29;20460;-75
2023/06/19 06:00:32;;;;;;;7.47;6.55;;;;;;;21.83;51.15;99860.59;10192072;29;20044;-75
2023/06/19 06:05:36;;;;;;;11.07;6.22;;;;;;;21.79;51.71;99862.94;10183365;29;20555;-74
2023/06/19 06:10:39;;;;;;;6.65;5.95;;;;;;;22.00;52.74;99866.50;10189906;29;20040;-76
2023/06/19 06:15:43;;;;;;;7.05;5.88;;;;;;;22.05;52.77;99873.03;10184588;29;20491;-76
2023/06/19 06:20:46;;;;;;;6.20;5.60;;;;;;;22.27;52.96;99878.22;10191481;29;20728;-76
2023/06/19 06:25:49;;;;;;;4.82;4.22;;;;;;;21.85;53.37;99885.84;10196667;29;20121;-76
2023/06/19 06:30:55;;;;;;;5.60;5.03;;;;;;;21.90;53.94;99897.00;10197785;29;20047;-76
2023/06/19 06:35:59;;;;;;;8.10;5.38;;;;;;;22.06;53.86;99895.72;10195262;29;20056;-76
2023/06/19 06:41:01;;;;;;;6.40;5.43;;;;;;;22.29;53.36;99887.06;10184247;29;20048;-76
2023/06/19 06:46:06;;;;;;;6.32;5.00;;;;;;;22.16;53.85;99911.69;10179598;29;20044;-76
2023/06/19 06:51:10;;;;;;;5.25;3.80;;;;;;;22.06;54.16;99923.09;10187015;29;20032;-77
2023/06/19 06:56:13;;;;;;;4.30;3.78;;;;;;;22.30;53.73;99924.31;10195731;29;20047;-77
2023/06/19 07:01:17;;;;;;;6.22;4.97;;;;;;;22.15;54.92;99927.28;10205869;29;20044;-77
2023/06/19 07:06:20;;;;;;;4.60;3.42;;;;;;;22.32;53.98;99933.13;10200130;29;20055;-77
2023/06/19 07:11:23;;;;;;;4.57;3.88;;;;;;;22.12;55.18;99914.03;10194304;29;20043;-76
2023/06/19 07:16:27;;;;;;;4.65;4.10;;;;;;;22.57;53.62;99929.75;10191703;29;20043;-76
2023/06/19 07:21:32;;;;;;;3.92;3.53;;;;;;;23.36;53.47;99921.25;10196016;29;20055;-76
2023/06/19 07:26:35;;;;;;;6.10;4.20;;;;;;;24.59;49.79;99921.78;10188432;29;20492;-75
2023/06/19 07:31:39;;;;;;;5.38;3.35;;;;;;;24.55;48.87;99935.13;10196324;29;20036;-77
2023/06/19 07:36:42;;;;;;;7.72;3.70;;;;;;;24.79;49.12;99952.59;10198195;29;20062;-77
2023/06/19 07:41:45;;;;;;;4.20;2.75;;;;;;;24.67;48.49;99926.97;10205016;29;20407;-77
2023/06/19 07:46:49;;;;;;;5.38;3.15;;;;;;;25.75;46.46;99942.69;10200246;29;20073;-77
2023/06/19 07:51:52;;;;;;;2.97;2.65;;;;;;;25.12;47.40;99944.00;10205367;29;20754;-78
2023/06/19 07:56:55;;;;;;;3.65;2.33;;;;;;;24.03;48.39;99953.75;10196462;29;20048;-78
2023/06/19 08:02:00;;;;;;;2.63;2.38;;;;;;;22.97;51.50;99952.38;10212539;29;20096;-78
2023/06/19 08:07:03;;;;;;;3.90;2.97;;;;;;;23.31;51.20;99948.50;10203557;29;20527;-77
2023/06/19 08:12:07;;;;;;;3.80;2.50;;;;;;;23.25;51.16;99970.44;10204158;29;20036;-77
2023/06/19 08:17:11;;;;;;;3.63;3.33;;;;;;;23.28;52.60;99970.00;10208870;29;20043;-76
2023/06/19 08:22:14;;;;;;;3.42;3.15;;;;;;;23.73;50.95;99972.72;10210415;29;20071;-77
2023/06/19 08:27:17;;;;;;;3.78;3.15;;;;;;;23.55;50.97;99970.69;10194190;29;20076;-77
2023/06/19 08:32:21;;;;;;;3.72;3.35;;;;;;;23.73;50.50;99980.94;10199059;29;20419;-77
2023/06/19 08:37:24;;;;;;;6.15;3.28;;;;;;;23.93;50.59;99986.31;10196761;29;20475;-77
2023/06/19 08:42:28;;;;;;;4.70;3.30;;;;;;;23.85;50.85;99981.94;10203817;29;20625;-76
2023/06/19 08:47:33;;;;;;;3.30;3.03;;;;;;;23.85;50.73;100004.69;10206734;29;20074;-77
2023/06/19 08:52:36;;;;;;;3.35;3.05;;;;;;;23.21;51.41;100008.38;10203537;29;20047;-77
2023/06/19 08:57:40;;;;;;;4.78;3.80;;;;;;;23.90;50.17;100003.22;10201994;29;20048;-77
2023/06/19 09:02:47;;;;;;;5.32;3.70;;;;;;;23.71;49.48;100007.72;10202093;29;20056;-77
2023/06/19 09:08:06;;;;;;;;;;;;;;;23.09;50.76;100016.41;10206266;29;20079;-77
2023/06/19 09:13:12;;;;;;;5.05;4.50;;;;;;;23.32;50.35;100013.19;10204033;29;19995;-77
2023/06/19 09:18:16;;;;;;;5.70;5.20;;;;;;;23.10;51.64;100029.03;10196073;29;20190;-76
2023/06/19 09:23:19;;;;;;;5.30;4.85;;;;;;;23.20;50.94;100028.59;10199575;29;20055;-77
2023/06/19 09:28:26;;;;;;;6.07;4.82;;;;;;;23.51;50.45;100030.59;10206914;29;20075;-76
2023/06/19 09:33:32;;;;;;;5.55;5.15;;;;;;;23.48;49.36;100033.78;10202259;29;20396;-76
2023/06/19 09:38:38;;;;;;;7.85;5.25;;;;;;;23.88;48.92;100031.69;10202094;29;20047;-77
2023/06/19 09:43:44;;;;;;;5.47;5.07;;;;;;;23.11;50.23;100041.69;10198506;29;20234;-77
2023/06/19 09:48:58;;;;;;;5.38;4.97;;;;;;;23.47;50.31;100047.69;10201361;29;20075;-76
2023/06/19 09:54:04;;;;;;;6.20;5.68;;;;;;;24.11;49.88;100041.25;10206898;29;20047;-78
2023/06/19 09:59:09;;;;;;;5.50;5.03;;;;;;;24.69;47.00;100043.75;10203761;29;20047;-77
2023/06/19 10:04:14;;;;;;;5.85;5.32;;;;;;;24.24;49.45;100043.03;10206084;29;20044;-78
2023/06/19 10:09:18;;;;;;;4.60;4.20;;;;;;;23.60;50.05;100053.94;10195555;29;20047;-77
2023/06/19 10:14:22;;;;;;;5.90;5.40;;;;;;;23.60;49.84;100067.66;10202397;29;20044;-77
2023/06/19 10:19:26;;;;;;;5.82;4.57;;;;;;;23.50;49.52;100063.69;10201522;29;20408;-77
2023/06/19 10:24:29;;;;;;;5.82;5.35;;;;;;;23.66;48.36;100060.47;10209425;29;20043;-77
2023/06/19 10:29:42;;;;;;;6.30;5.78;;;;;;;23.21;50.35;100052.22;10197450;29;20072;-77
2023/06/19 10:34:51;;;;;;;7.20;5.22;;;;;;;24.10;48.84;100065.09;10212470;29;20063;-76
2023/06/19 10:39:54;;;;;;;7.32;5.00;;;;;;;23.97;49.00;100058.84;10193771;29;20044;-77
2023/06/19 10:45:03;;;;;;;10.05;5.70;;;;;;;23.80;49.74;100064.00;10187361;29;20052;-77
2023/06/19 10:50:11;;;;;;;5.60;4.50;;;;;;;23.64;49.53;100062.56;10180291;29;20452;-77
2023/06/19 10:55:14;;;;;;;4.82;4.32;;;;;;;23.43;50.39;100081.03;10192190;29;20040;-75
2023/06/19 11:00:24;;;;;;;6.03;4.10;;;;;;;24.07;49.25;100082.00;10192604;29;20098;-77
2023/06/19 11:05:29;;;;;;;5.00;4.55;;;;;;;24.01;48.31;100065.59;10206907;29;20054;-76
2023/06/19 11:10:32;;;;;;;5.63;4.75;;;;;;;24.02;48.62;100065.34;10208865;29;20043;-77
2023/06/19 11:15:35;;;;;;;5.72;5.10;;;;;;;25.41;45.74;100052.28;10196565;29;20055;-77
2023/06/19 11:20:47;;;;;;;6.50;5.93;;;;;;;25.90;45.94;100062.50;10192424;29;20078;-75
2023/06/19 11:25:50;;;;;;;;;;;;;;;25.52;45.07;100066.34;10185467;29;20044;-77
2023/06/19 11:30:59;;;;;;;4.80;4.40;;;;;;;24.64;46.71;100090.25;10190349;29;20371;-76
2023/06/19 11:36:04;;;;;;;5.43;4.35;;;;;;;25.16;47.08;100071.63;10192736;29;20051;-76
2023/06/19 11:41:07;;;;;;;3.92;3.70;;;;;;;25.59;45.56;100059.69;10195296;29;20036;-77
2023/06/19 11:46:11;;;;;;;4.00;3.20;;;;;;;25.78;44.65;100060.53;10201049;29;20040;-77
2023/06/19 11:51:15;;;;;;;3.17;2.97;;;;;;;25.74;46.09;100094.22;10197802;29;20043;-77
2023/06/19 11:56:19;;;;;;;3.55;3.25;;;;;;;25.20;45.88;100082.97;10190524;29;20080;-74
2023/06/19 12:01:22;;;;;;;3.97;3.33;;;;;;;24.66;47.98;100079.91;10193062;29;20536;-77
2023/06/19 12:06:26;;;;;;;4.13;3.83;;;;;;;24.47;48.08;100095.47;10201073;29;20083;-77
2023/06/19 12:11:29;;;;;;;4.05;3.28;;;;;;;26.01;45.48;100078.19;10190824;29;20115;-75
2023/06/19 12:16:32;;;;;;;3.92;3.70;;;;;;;26.33;45.03;100069.69;10196466;29;20067;-77
2023/06/19 12:21:36;;;;;;;4.72;4.13;;;;;;;26.36;44.72;100063.75;10199471;29;20087;-77
2023/06/19 12:26:43;;;;;;;4.70;3.88;;;;;;;25.84;45.16;100065.09;10190226;29;20087;-76
2023/06/19 12:31:46;;;;;;;3.90;3.45;;;;;;;26.57;43.70;100052.13;10184810;29;20044;-78
2023/06/19 12:36:50;;;;;;;3.78;3.47;;;;;;;26.27;43.24;100061.31;10203317;29;20051;-74
2023/06/19 12:41:53;;;;;;;3.92;3.72;;;;;;;26.06;43.88;100070.09;10231454;29;20047;-76
2023/06/19 12:46:58;;;;;;;3.85;3.42;;;;;;;26.42;43.81;100062.78;10200328;29;20406;-77
2023/06/19 12:52:02;;;;;;;3.33;3.08;;;;;;;26.80;44.01;100064.25;10197495;29;20099;-76
2023/06/19 12:57:06;;;;;;;6.00;2.80;;;;;;;27.58;41.00;100065.75;10188976;29;20111;-76
2023/06/19 13:02:09;;;;;;;3.60;3.30;;;;;;;27.43;41.50;100062.66;10190069;29;20412;-76
2023/06/19 13:07:18;;;;;;;4.10;3.08;;;;;;;28.37;40.59;100063.13;10184159;29;20504;-76
2023/06/19 13:12:23;;;;;;;3.10;2.90;;;;;;;28.32;40.24;100057.50;10192346;29;20096;-76
2023/06/19 13:17:26;;;;;;;3.40;3.10;;;;;;;28.19;40.91;100060.56;10195031;29;20281;-76
2023/06/19 13:22:30;;;;;;;2.72;2.53;;;;;;;29.15;38.79;100058.59;10191491;29;20067;-76
2023/06/19 13:27:33;;;;;;;3.08;2.88;;;;;;;27.67;39.63;100061.50;10209060;29;20139;-77
2023/06/19 13:32:37;;;;;;;3.88;3.65;;;;;;;26.71;40.69;100066.50;10192028;29;20035;-76
2023/06/19 13:37:42;;;;;;;4.15;3.50;;;;;;;27.24;40.36;100062.81;10195768;29;20067;-73
2023/06/19 13:42:44;;;;;;;5.32;3.30;;;;;;;27.70;40.13;100065.69;10176277;29;20036;-74
2023/06/19 13:47:47;;;;;;;5.35;3.25;;;;;;;29.29;37.30;100055.41;10173573;29;20056;-74
2023/06/19 13:52:51;;;;;;;3.20;2.90;;;;;;;28.46;38.30;100056.06;10198272;29;20043;-74
2023/06/19 13:57:55;;;;;;;2.88;2.72;;;;;;;29.08;37.38;100059.84;10200692;29;20052;-75
2023/06/19 14:02:57;;;;;;;3.10;2.90;;;;;;;29.00;37.53;100066.63;10206579;29;20099;-74
2023/06/19 14:08:03;;;;;;;4.47;3.10;;;;;;;27.31;39.65;100066.25;10200392;29;20127;-75
2023/06/19 14:13:06;;;;;;;4.13;3.17;;;;;;;27.82;39.48;100069.25;10197423;29;20039;-75
2023/06/19 14:18:09;;;;;;;3.47;3.17;;;;;;;29.33;37.13;100057.41;10195235;29;20040;-74
2023/06/19 14:23:13;;;;;;;3.65;3.35;;;;;;;29.53;37.05;100069.84;10196877;29;20131;-74
2023/06/19 14:28:16;;;;;;;4.15;3.85;;;;;;;29.04;37.31;100067.78;10199349;29;20047;-74
2023/06/19 14:33:19;;;;;;;4.07;3.30;;;;;;;28.71;37.96;100052.91;10199928;29;20039;-73
2023/06/19 14:38:25;;;;;;;3.53;3.25;;;;;;;27.98;38.89;100053.88;10200208;29;20510;-74
2023/06/19 14:43:28;;;;;;;5.40;3.80;;;;;;;27.70;39.09;100058.28;10196161;29;20036;-74
2023/06/19 14:48:34;;;;;;;4.00;3.40;;;;;;;27.55;39.80;100049.69;10195197;29;20119;-74
2023/06/19 14:53:39;;;;;;;3.60;3.30;;;;;;;29.14;37.08;100043.06;10186147;29;20587;-74
2023/06/19 14:58:42;;;;;;;4.68;3.45;;;;;;;30.12;36.17;100042.28;10190313;29;20043;-74
2023/06/19 15:03:45;;;;;;;3.97;3.60;;;;;;;29.84;36.11;100048.94;10195737;29;20083;-74
2023/06/19 15:08:49;;;;;;;4.25;3.80;;;;;;;28.70;38.83;100053.19;10199109;29;20158;-74
2023/06/19 15:13:52;;;;;;;4.40;3.25;;;;;;;28.66;37.46;100054.75;10188873;29;20044;-74
2023/06/19 15:18:55;;;;;;;4.35;3.92;;;;;;;29.58;38.26;100054.13;10193487;29;20044;-74
2023/06/19 15:23:59;;;;;;;4.72;4.32;;;;;;;30.32;37.46;100062.97;10189429;29;20043;-73
2023/06/19 15:29:03;;;;;;;6.32;3.92;;;;;;;29.24;38.62;100055.38;10182575;29;20044;-73
2023/06/19 15:34:05;;;;;;;3.95;3.65;;;;;;;28.79;37.74;100048.06;10188452;29;20043;-71
2023/06/19 15:39:10;;;;;;;5.47;3.78;;;;;;;28.49;38.82;100038.16;10193261;29;20059;-73
2023/06/19 15:44:14;;;;;;;4.68;3.80;;;;;;;28.83;38.49;100035.41;10188825;29;20039;-74
2023/06/19 15:49:17;;;;;;;3.78;3.47;;;;;;;30.54;36.10;100024.94;10188798;29;20456;-74
2023/06/19 15:54:23;;;;;;;4.25;3.80;;;;;;;30.11;36.49;100025.91;10187260;29;20044;-75
2023/06/19 15:59:25;;;;;;;4.07;3.78;;;;;;;30.62;34.90;100024.44;10180070;29;20044;-75
2023/06/19 16:04:28;;;;;;;4.50;4.10;;;;;;;29.63;37.96;100033.19;10192604;29;20040;-74
2023/06/19 16:09:32;;;;;;;4.60;4.20;;;;;;;29.66;36.64;100036.28;10198164;29;20051;-73
2023/06/19 16:14:52;;;;;;;4.10;3.75;;;;;;;29.69;36.61;100021.91;10203761;29;20380;-74
2023/06/19 16:19:55;;;;;;;6.28;4.63;;;;;;;30.40;35.76;100009.88;10205284;29;20559;-74
2023/06/19 16:24:59;;;;;;;4.85;4.05;;;;;;;30.43;36.60;100010.16;10204682;29;20126;-75
2023/06/19 16:30:02;;;;;;;6.03;3.55;;;;;;;30.61;34.71;100008.91;10201117;29;20040;-74
2023/06/19 16:35:06;;;;;;;3.70;3.40;;;;;;;32.88;32.48;99998.09;10193383;29;20443;-73
2023/06/19 16:40:12;;;;;;;4.20;3.80;;;;;;;34.16;31.42;99994.69;10185893;29;20663;-74
2023/06/19 16:45:15;;;;;;;3.60;3.30;;;;;;;35.55;29.01;100000.50;10200311;29;20070;-74
2023/06/19 16:50:18;;;;;;;3.67;3.38;;;;;;;36.15;28.45;99995.13;10198039;29;20136;-75
2023/06/19 16:55:24;;;;;;;4.50;3.20;;;;;;;39.06;26.18;99991.69;10203698;29;20048;-75
2023/06/19 17:00:27;;;;;;;4.63;3.08;;;;;;;40.26;24.89;100004.25;10199665;29;20044;-75
2023/06/19 17:05:30;;;;;;;3.33;3.00;;;;;;;40.14;24.29;99998.47;10194345;29;20060;-74
2023/06/19 17:10:34;;;;;;;4.82;3.47;;;;;;;39.65;24.31;99994.97;10192603;29;20047;-75
2023/06/19 17:15:37;;;;;;;4.00;3.00;;;;;;;36.40;27.56;100012.63;10192470;29;20047;-75
2023/06/19 17:20:40;;;;;;;3.15;2.75;;;;;;;37.99;26.34;100027.03;10195579;29;20044;-76
2023/06/19 17:25:45;;;;;;;3.22;2.95;;;;;;;33.99;29.29;100023.78;10203200;29;20035;-75
2023/06/19 17:30:48;;;;;;;5.45;3.30;;;;;;;36.72;27.34;100022.09;10203580;29;20067;-75
2023/06/19 17:35:51;;;;;;;4.03;3.30;;;;;;;39.20;24.67;100021.31;10198592;29;20039;-75
2023/06/19 17:40:55;;;;;;;3.00;2.80;;;;;;;39.57;24.19;100021.09;10198515;29;20050;-74
2023/06/19 17:45:58;;;;;;;3.05;2.85;;;;;;;37.68;26.76;100022.13;10194381;29;20052;-74
2023/06/19 17:51:01;;;;;;;3.40;2.80;;;;;;;33.41;30.96;100031.91;10192634;29;20032;-74
2023/06/19 17:56:05;;;;;;;3.50;2.85;;;;;;;31.06;34.08;100023.34;10202866;29;20055;-75
2023/06/19 18:01:08;;;;;;;4.85;3.28;;;;;;;30.17;36.17;100028.53;10203596;29;20067;-74
2023/06/19 18:06:11;;;;;;;3.53;3.22;;;;;;;29.36;37.38;100033.94;10201527;29;20043;-75
2023/06/19 18:11:16;;;;;;;3.67;3.38;;;;;;;28.43;38.46;100047.47;10201515;29;20048;-75
2023/06/19 18:16:18;;;;;;;4.22;3.53;;;;;;;27.99;39.59;100050.00;10194942;29;20056;-75
2023/06/19 18:21:22;;;;;;;4.10;3.35;;;;;;;27.67;40.59;100056.00;10191544;29;20051;-75
2023/06/19 18:26:26;;;;;;;3.70;3.38;;;;;;;27.32;41.23;100051.41;10193756;29;20075;-74
2023/06/19 18:31:29;;;;;;;5.05;3.47;;;;;;;27.02;41.52;100062.59;10186338;29;20044;-73
2023/06/19 18:36:32;;;;;;;6.53;3.65;;;;;;;26.80;42.13;100059.59;10190671;29;20127;-73
2023/06/19 18:41:36;;;;;;;4.63;3.15;;;;;;;26.61;42.90;100056.09;10189237;29;20052;-75
2023/06/19 18:46:39;;;;;;;4.13;3.67;;;;;;;26.35;43.57;100060.13;10192466;29;20051;-73
2023/06/19 18:51:42;;;;;;;5.60;4.00;;;;;;;26.06;44.40;100053.56;10177632;29;20050;-72
2023/06/19 18:56:46;;;;;;;4.85;3.08;;;;;;;25.84;44.34;100054.09;10175225;29;20047;-73
2023/06/19 19:01:49;;;;;;;4.20;3.80;;;;;;;25.61;44.14;100067.69;10186112;29;20039;-73
2023/06/19 19:06:52;;;;;;;5.78;4.10;;;;;;;25.57;44.82;100061.81;10185283;29;20090;-73
2023/06/19 19:11:56;;;;;;;4.05;3.65;;;;;;;25.40;45.40;100060.78;10189910;29;20040;-73
2023/06/19 19:17:01;;;;;;;4.60;3.65;;;;;;;25.29;45.28;100056.91;10189115;29;20043;-74
2023/06/19 19:22:04;;;;;;;5.55;3.85;;;;;;;25.22;45.25;100058.88;10189698;29;20577;-73
2023/06/19 19:27:08;;;;;;;4.95;4.07;;;;;;;25.08;45.26;100069.16;10184499;29;20040;-74
2023/06/19 19:32:11;;;;;;;4.20;3.78;;;;;;;24.89;45.08;100075.69;10184517;29;20127;-74
2023/06/19 19:37:14;;;;;;;3.80;3.50;;;;;;;24.78;45.21;100081.91;10186447;29;20563;-72
2023/06/19 19:42:18;;;;;;;5.20;4.35;;;;;;;24.59;44.90;100070.88;10199010;29;20048;-73
2023/06/19 19:47:22;;;;;;;6.35;4.35;;;;;;;24.51;45.08;100082.13;10196964;29;20048;-73
2023/06/19 19:52:25;;;;;;;5.40;4.05;;;;;;;24.42;45.03;100083.50;10197649;29;20436;-72
2023/06/19 19:57:29;;;;;;;6.85;4.32;;;;;;;24.36;45.38;100090.69;10191485;29;20130;-74
2023/06/19 20:02:32;;;;;;;4.50;4.10;;;;;;;24.11;45.74;100093.38;10183245;29;20048;-73
2023/06/19 20:07:35;;;;;;;7.13;4.50;;;;;;;23.95;46.31;100094.75;10186999;29;20503;-73
2023/06/19 20:12:39;;;;;;;5.57;4.20;;;;;;;23.89;46.30;100103.84;10190813;29;20040;-72
2023/06/19 20:17:42;;;;;;;5.40;4.47;;;;;;;23.88;45.73;100102.97;10191411;29;20044;-75
2023/06/19 20:22:45;;;;;;;4.88;4.25;;;;;;;23.93;46.12;100121.53;10197615;29;20700;-73
2023/06/19 20:27:49;;;;;;;5.65;4.07;;;;;;;23.83;46.32;100115.66;10197830;29;20415;-73
2023/06/19 20:33:09;;;;;;;5.85;4.60;;;;;;;23.71;47.04;100111.91;10200110;29;20046;-73
2023/06/19 20:38:12;;;;;;;5.68;4.72;;;;;;;23.54;47.04;100114.31;10196182;29;20122;-73
2023/06/19 20:43:16;;;;;;;8.52;4.90;;;;;;;23.38;47.42;100118.34;10194886;29;20048;-73
2023/06/19 20:48:19;;;;;;;5.00;4.40;;;;;;;23.29;47.68;100111.44;10200680;29;20059;-73
2023/06/19 20:53:22;;;;;;;5.75;5.25;;;;;;;23.24;48.52;100119.44;10201515;29;20040;-73
2023/06/19 20:58:27;;;;;;;6.95;5.13;;;;;;;23.18;48.66;100116.50;10201520;29;20040;-73
2023/06/19 21:03:31;;;;;;;5.88;4.75;;;;;;;23.12;49.13;100128.31;10203296;29;20052;-73
2023/06/19 21:08:34;;;;;;;7.05;5.38;;;;;;;22.95;49.76;100124.28;10195516;29;20040;-72
2023/06/19 21:13:38;;;;;;;6.18;5.55;;;;;;;22.88;50.24;100129.78;10193855;29;20500;-73
2023/06/19 21:18:41;;;;;;;7.45;5.13;;;;;;;22.76;50.45;100128.72;10186039;29;20048;-72
2023/06/19 21:23:43;;;;;;;5.47;4.97;;;;;;;22.59;50.50;100131.03;10191779;29;20503;-72
2023/06/19 21:28:48;;;;;;;8.02;5.45;;;;;;;22.56;50.90;100131.47;10201673;29;20087;-72
2023/06/19 21:33:51;;;;;;;7.75;5.10;;;;;;;22.47;50.54;100130.00;10205586;29;20082;-73
2023/06/19 21:38:54;;;;;;;6.75;5.20;;;;;;;22.31;51.20;100128.44;10204689;29;20103;-73
2023/06/19 21:43:58;;;;;;;6.90;5.30;;;;;;;22.27;51.24;100138.97;10191570;29;20063;-73
2023/06/19 21:49:03;;;;;;;6.13;4.93;;;;;;;22.23;51.37;100134.94;10179929;29;20591;-73
2023/06/19 21:54:06;;;;;;;8.40;4.88;;;;;;;22.16;51.86;100139.59;10192186;29;20091;-73
2023/06/19 21:59:11;;;;;;;5.80;5.05;;;;;;;22.14;52.02;100136.19;10199416;29;20054;-73
2023/06/19 22:04:15;;;;;;;6.07;4.70;;;;;;;22.14;52.33;100122.53;10201349;29;20057;-74
2023/06/19 22:09:18;;;;;;;6.22;5.28;;;;;;;22.00;52.61;100118.91;10190983;29;20102;-73
2023/06/19 22:14:22;;;;;;;6.60;5.10;;;;;;;21.91;52.94;100120.13;10190100;29;20071;-73
2023/06/19 22:19:25;;;;;;;7.47;5.40;;;;;;;21.93;53.14;100125.41;10188262;29;20134;-74
2023/06/19 22:24:28;;;;;;;6.25;5.32;;;;;;;21.88;53.28;100115.91;10190258;29;20050;-73
2023/06/19 22:29:33;;;;;;;8.95;5.20;;;;;;;21.81;53.60;100109.59;10185513;29;20123;-73
2023/06/19 22:34:36;;;;;;;5.65;5.15;;;;;;;21.81;54.28;100108.75;10187428;29;20064;-73
2023/06/19 22:39:39;;;;;;;6.20;4.93;;;;;;;21.72;54.29;100102.59;10192070;29;20047;-74
2023/06/19 22:44:43;;;;;;;6.50;5.50;;;;;;;21.65;54.54;100101.72;10193829;29;20060;-73
2023/06/19 22:49:46;;;;;;;6.07;5.47;;;;;;;21.55;55.06;100101.25;10188018;29;20432;-73
2023/06/19 22:54:49;;;;;;;5.40;4.85;;;;;;;21.48;54.78;100109.44;10184045;29;20036;-73
2023/06/19 22:59:53;;;;;;;6.00;4.93;;;;;;;21.50;55.42;100106.47;10176725;29;20040;-73
2023/06/19 23:04:56;;;;;;;9.57;5.18;;;;;;;21.44;55.62;100105.41;10190215;29;20113;-73
2023/06/19 23:09:59;;;;;;;6.78;5.43;;;;;;;21.35;55.83;100102.00;10191208;29;20071;-73
2023/06/19 23:15:06;;;;;;;6.10;5.50;;;;;;;21.32;56.14;100104.31;10191364;29;20044;-72
2023/06/19 23:20:12;;;;;;;6.13;5.53;;;;;;;21.27;56.50;100106.78;10186570;29;20046;-73